sensor_id;sensor_type;location;lat;lon;timestamp;temperature;humidity
22852;DHT22;11592;45.460;9.240;2022-08-14T00:00:01;24.70;98.40
22852;DHT22;11592;45.460;9.240;2022-08-14T00:02:29;24.70;98.20
22852;DHT22;11592;45.460;9.240;2022-08-14T00:04:57;24.70;98.30
22852;DHT22;11592;45.460;9.240;2022-08-14T00:07:24;24.60;98.30
22852;DHT22;11592;45.460;9.240;2022-08-14T00:09:53;24.50;98.40
22852;DHT22;11592;45.460;9.240;2022-08-14T00:12:47;24.50;98.50
22852;DHT22;11592;45.460;9.240;2022-08-14T00:15:31;24.50;98.90
22852;DHT22;11592;45.460;9.240;2022-08-14T00:18:04;24.40;99.50
22852;DHT22;11592;45.460;9.240;2022-08-14T00:20:35;24.40;99.70
22852;DHT22;11592;45.460;9.240;2022-08-14T00:23:10;24.40;99.10
22852;DHT22;11592;45.460;9.240;2022-08-14T00:25:47;24.40;99.30
22852;DHT22;11592;45.460;9.240;2022-08-14T00:28:24;24.50;98.90
22852;DHT22;11592;45.460;9.240;2022-08-14T00:31:00;24.30;99.40
22852;DHT22;11592;45.460;9.240;2022-08-14T00:33:28;24.30;99.50
22852;DHT22;11592;45.460;9.240;2022-08-14T00:36:15;24.20;99.50
22852;DHT22;11592;45.460;9.240;2022-08-14T00:39:03;24.20;99.40
22852;DHT22;11592;45.460;9.240;2022-08-14T00:41:32;24.20;99.40
22852;DHT22;11592;45.460;9.240;2022-08-14T00:43:59;24.10;99.90
22852;DHT22;11592;45.460;9.240;2022-08-14T00:46:27;24.10;99.80
22852;DHT22;11592;45.460;9.240;2022-08-14T00:48:58;24.10;99.40
22852;DHT22;11592;45.460;9.240;2022-08-14T00:51:25;24.00;99.90
22852;DHT22;11592;45.460;9.240;2022-08-14T00:54:07;24.00;99.90
22852;DHT22;11592;45.460;9.240;2022-08-14T00:56:49;24.00;99.90
22852;DHT22;11592;45.460;9.240;2022-08-14T00:59:16;24.10;99.90
22852;DHT22;11592;45.460;9.240;2022-08-14T01:01:43;23.90;99.90
22852;DHT22;11592;45.460;9.240;2022-08-14T01:04:11;23.80;99.90
22852;DHT22;11592;45.460;9.240;2022-08-14T01:06:58;23.80;99.90
22852;DHT22;11592;45.460;9.240;2022-08-14T01:09:30;23.70;99.90
22852;DHT22;11592;45.460;9.240;2022-08-14T01:11:57;23.60;99.90
22852;DHT22;11592;45.460;9.240;2022-08-14T01:14:29;23.60;99.90
22852;DHT22;11592;45.460;9.240;2022-08-14T01:16:57;23.50;99.90
22852;DHT22;11592;45.460;9.240;2022-08-14T01:19:25;23.40;99.90
22852;DHT22;11592;45.460;9.240;2022-08-14T01:22:12;23.30;99.90
22852;DHT22;11592;45.460;9.240;2022-08-14T01:24:44;23.30;99.90
22852;DHT22;11592;45.460;9.240;2022-08-14T01:27:17;23.40;99.90
22852;DHT22;11592;45.460;9.240;2022-08-14T01:29:49;23.50;99.90
22852;DHT22;11592;45.460;9.240;2022-08-14T01:32:29;23.40;99.90
22852;DHT22;11592;45.460;9.240;2022-08-14T01:35:01;23.40;99.90
22852;DHT22;11592;45.460;9.240;2022-08-14T01:37:46;23.30;99.90
22852;DHT22;11592;45.460;9.240;2022-08-14T01:40:26;23.30;99.90
22852;DHT22;11592;45.460;9.240;2022-08-14T01:43:11;23.30;99.90
22852;DHT22;11592;45.460;9.240;2022-08-14T01:45:47;23.30;99.90
22852;DHT22;11592;45.460;9.240;2022-08-14T01:48:32;23.30;99.90
22852;DHT22;11592;45.460;9.240;2022-08-14T01:51:05;23.20;99.90
22852;DHT22;11592;45.460;9.240;2022-08-14T01:53:47;23.20;99.90
22852;DHT22;11592;45.460;9.240;2022-08-14T01:56:23;23.30;99.90
22852;DHT22;11592;45.460;9.240;2022-08-14T02:01:48;23.00;99.90
22852;DHT22;11592;45.460;9.240;2022-08-14T02:04:28;22.90;99.90
22852;DHT22;11592;45.460;9.240;2022-08-14T02:07:16;22.90;99.90
22852;DHT22;11592;45.460;9.240;2022-08-14T02:10:04;22.90;99.90
22852;DHT22;11592;45.460;9.240;2022-08-14T02:12:32;22.90;99.90
22852;DHT22;11592;45.460;9.240;2022-08-14T02:15:00;22.80;99.90
22852;DHT22;11592;45.460;9.240;2022-08-14T02:17:28;22.70;99.90
22852;DHT22;11592;45.460;9.240;2022-08-14T02:19:56;22.80;99.90
22852;DHT22;11592;45.460;9.240;2022-08-14T02:22:24;22.80;99.90
22852;DHT22;11592;45.460;9.240;2022-08-14T02:24:59;22.90;99.90
22852;DHT22;11592;45.460;9.240;2022-08-14T02:27:26;22.90;99.90
22852;DHT22;11592;45.460;9.240;2022-08-14T02:30:14;22.90;99.90
22852;DHT22;11592;45.460;9.240;2022-08-14T02:32:42;22.80;99.90
22852;DHT22;11592;45.460;9.240;2022-08-14T02:35:12;22.70;99.90
22852;DHT22;11592;45.460;9.240;2022-08-14T02:37:46;22.70;99.90
22852;DHT22;11592;45.460;9.240;2022-08-14T02:40:17;22.70;99.90
22852;DHT22;11592;45.460;9.240;2022-08-14T02:42:45;22.70;99.90
22852;DHT22;11592;45.460;9.240;2022-08-14T02:45:24;22.70;99.90
22852;DHT22;11592;45.460;9.240;2022-08-14T02:48:04;22.70;99.90
22852;DHT22;11592;45.460;9.240;2022-08-14T02:50:52;22.60;99.90
22852;DHT22;11592;45.460;9.240;2022-08-14T02:53:19;22.60;99.90
22852;DHT22;11592;45.460;9.240;2022-08-14T02:55:46;22.50;99.90
22852;DHT22;11592;45.460;9.240;2022-08-14T02:58:13;22.50;99.90
22852;DHT22;11592;45.460;9.240;2022-08-14T03:00:56;22.60;99.90
22852;DHT22;11592;45.460;9.240;2022-08-14T03:03:24;22.50;99.90
22852;DHT22;11592;45.460;9.240;2022-08-14T03:05:52;22.50;99.90
22852;DHT22;11592;45.460;9.240;2022-08-14T03:08:21;22.40;99.90
22852;DHT22;11592;45.460;9.240;2022-08-14T03:10:48;22.40;99.90
22852;DHT22;11592;45.460;9.240;2022-08-14T03:13:17;22.50;99.90
22852;DHT22;11592;45.460;9.240;2022-08-14T03:15:48;22.50;99.90
22852;DHT22;11592;45.460;9.240;2022-08-14T03:18:24;22.60;99.90
22852;DHT22;11592;45.460;9.240;2022-08-14T03:21:05;22.50;99.90
22852;DHT22;11592;45.460;9.240;2022-08-14T03:23:34;22.60;99.90
22852;DHT22;11592;45.460;9.240;2022-08-14T03:26:05;22.60;99.90
22852;DHT22;11592;45.460;9.240;2022-08-14T03:28:33;22.70;99.90
22852;DHT22;11592;45.460;9.240;2022-08-14T03:31:02;22.60;99.90
22852;DHT22;11592;45.460;9.240;2022-08-14T03:33:35;22.50;99.90
22852;DHT22;11592;45.460;9.240;2022-08-14T03:36:08;22.50;99.90
22852;DHT22;11592;45.460;9.240;2022-08-14T03:38:57;22.50;99.90
22852;DHT22;11592;45.460;9.240;2022-08-14T03:41:46;20.60;99.90
22852;DHT22;11592;45.460;9.240;2022-08-14T03:44:13;22.20;99.90
22852;DHT22;11592;45.460;9.240;2022-08-14T03:47:00;22.30;99.90
22852;DHT22;11592;45.460;9.240;2022-08-14T03:49:29;22.40;99.90
22852;DHT22;11592;45.460;9.240;2022-08-14T03:51:58;22.40;99.90
22852;DHT22;11592;45.460;9.240;2022-08-14T03:54:50;22.30;99.90
22852;DHT22;11592;45.460;9.240;2022-08-14T03:57:18;22.20;99.90
22852;DHT22;11592;45.460;9.240;2022-08-14T03:59:48;22.20;99.90
22852;DHT22;11592;45.460;9.240;2022-08-14T04:02:15;22.20;99.90
22852;DHT22;11592;45.460;9.240;2022-08-14T04:05:02;22.20;99.90
22852;DHT22;11592;45.460;9.240;2022-08-14T04:07:39;22.20;99.90
22852;DHT22;11592;45.460;9.240;2022-08-14T04:10:16;22.10;99.90
22852;DHT22;11592;45.460;9.240;2022-08-14T04:12:57;22.10;99.90
22852;DHT22;11592;45.460;9.240;2022-08-14T04:15:30;22.10;99.90
22852;DHT22;11592;45.460;9.240;2022-08-14T04:17:56;22.20;99.90
22852;DHT22;11592;45.460;9.240;2022-08-14T04:20:29;22.00;99.90
22852;DHT22;11592;45.460;9.240;2022-08-14T04:22:56;21.90;99.90
22852;DHT22;11592;45.460;9.240;2022-08-14T04:25:23;21.90;99.90
22852;DHT22;11592;45.460;9.240;2022-08-14T04:27:50;22.00;99.90
22852;DHT22;11592;45.460;9.240;2022-08-14T04:30:29;22.00;99.90
22852;DHT22;11592;45.460;9.240;2022-08-14T04:32:58;22.00;99.90
22852;DHT22;11592;45.460;9.240;2022-08-14T04:35:37;22.10;99.90
22852;DHT22;11592;45.460;9.240;2022-08-14T04:38:23;22.00;99.90
22852;DHT22;11592;45.460;9.240;2022-08-14T04:41:12;22.00;99.90
22852;DHT22;11592;45.460;9.240;2022-08-14T04:43:57;22.00;99.90
22852;DHT22;11592;45.460;9.240;2022-08-14T04:46:24;22.00;99.90
22852;DHT22;11592;45.460;9.240;2022-08-14T04:49:13;22.00;99.90
22852;DHT22;11592;45.460;9.240;2022-08-14T04:51:41;22.10;99.90
22852;DHT22;11592;45.460;9.240;2022-08-14T04:54:21;22.10;99.90
22852;DHT22;11592;45.460;9.240;2022-08-14T04:56:50;22.30;99.90
22852;DHT22;11592;45.460;9.240;2022-08-14T04:59:20;22.20;99.90
22852;DHT22;11592;45.460;9.240;2022-08-14T05:01:46;22.20;99.90
22852;DHT22;11592;45.460;9.240;2022-08-14T05:04:21;22.20;99.90
22852;DHT22;11592;45.460;9.240;2022-08-14T05:06:52;22.20;99.90
22852;DHT22;11592;45.460;9.240;2022-08-14T05:09:24;22.30;99.90
22852;DHT22;11592;45.460;9.240;2022-08-14T05:11:54;22.30;99.90
22852;DHT22;11592;45.460;9.240;2022-08-14T05:14:41;22.40;99.90
22852;DHT22;11592;45.460;9.240;2022-08-14T05:17:19;22.40;99.90
22852;DHT22;11592;45.460;9.240;2022-08-14T05:19:47;22.50;99.90
22852;DHT22;11592;45.460;9.240;2022-08-14T05:22:34;22.50;99.90
22852;DHT22;11592;45.460;9.240;2022-08-14T05:25:03;22.60;99.90
22852;DHT22;11592;45.460;9.240;2022-08-14T05:27:30;22.60;99.90
22852;DHT22;11592;45.460;9.240;2022-08-14T05:29:57;22.60;99.90
22852;DHT22;11592;45.460;9.240;2022-08-14T05:32:24;22.60;99.90
22852;DHT22;11592;45.460;9.240;2022-08-14T05:34:57;22.70;99.90
22852;DHT22;11592;45.460;9.240;2022-08-14T05:37:25;22.80;99.90
22852;DHT22;11592;45.460;9.240;2022-08-14T05:39:55;23.00;99.90
22852;DHT22;11592;45.460;9.240;2022-08-14T05:42:22;23.00;99.90
22852;DHT22;11592;45.460;9.240;2022-08-14T05:44:55;23.10;99.90
22852;DHT22;11592;45.460;9.240;2022-08-14T05:47:22;23.20;99.90
22852;DHT22;11592;45.460;9.240;2022-08-14T05:49:56;23.20;99.90
22852;DHT22;11592;45.460;9.240;2022-08-14T05:52:23;23.30;99.90
22852;DHT22;11592;45.460;9.240;2022-08-14T05:55:08;23.30;99.90
22852;DHT22;11592;45.460;9.240;2022-08-14T05:57:52;23.40;99.90
22852;DHT22;11592;45.460;9.240;2022-08-14T06:00:21;23.40;99.90
22852;DHT22;11592;45.460;9.240;2022-08-14T06:02:54;23.40;99.90
22852;DHT22;11592;45.460;9.240;2022-08-14T06:05:24;23.60;99.90
22852;DHT22;11592;45.460;9.240;2022-08-14T06:07:56;23.60;99.90
22852;DHT22;11592;45.460;9.240;2022-08-14T06:10:24;23.60;99.90
22852;DHT22;11592;45.460;9.240;2022-08-14T06:12:54;23.60;99.90
22852;DHT22;11592;45.460;9.240;2022-08-14T06:15:23;23.70;99.90
22852;DHT22;11592;45.460;9.240;2022-08-14T06:17:55;23.40;99.90
22852;DHT22;11592;45.460;9.240;2022-08-14T06:20:25;23.90;99.90
22852;DHT22;11592;45.460;9.240;2022-08-14T06:22:54;23.90;99.90
22852;DHT22;11592;45.460;9.240;2022-08-14T06:25:22;24.00;99.90
22852;DHT22;11592;45.460;9.240;2022-08-14T06:27:51;24.10;99.90
22852;DHT22;11592;45.460;9.240;2022-08-14T06:30:20;24.10;99.90
22852;DHT22;11592;45.460;9.240;2022-08-14T06:32:49;24.20;99.90
22852;DHT22;11592;45.460;9.240;2022-08-14T06:35:19;24.30;99.90
22852;DHT22;11592;45.460;9.240;2022-08-14T06:37:55;24.40;99.90
22852;DHT22;11592;45.460;9.240;2022-08-14T06:40:32;24.40;99.90
22852;DHT22;11592;45.460;9.240;2022-08-14T06:43:06;24.40;99.90
22852;DHT22;11592;45.460;9.240;2022-08-14T06:45:40;24.50;99.90
22852;DHT22;11592;45.460;9.240;2022-08-14T06:48:18;26.30;99.90
22852;DHT22;11592;45.460;9.240;2022-08-14T06:50:47;24.50;99.90
22852;DHT22;11592;45.460;9.240;2022-08-14T06:53:14;24.50;99.90
22852;DHT22;11592;45.460;9.240;2022-08-14T06:55:44;24.50;99.90
22852;DHT22;11592;45.460;9.240;2022-08-14T06:58:24;24.50;99.90
22852;DHT22;11592;45.460;9.240;2022-08-14T07:00:57;24.60;99.90
22852;DHT22;11592;45.460;9.240;2022-08-14T07:03:50;24.70;99.90
22852;DHT22;11592;45.460;9.240;2022-08-14T07:06:49;24.90;99.90
22852;DHT22;11592;45.460;9.240;2022-08-14T07:09:16;24.90;99.90
22852;DHT22;11592;45.460;9.240;2022-08-14T07:11:49;25.00;99.90
22852;DHT22;11592;45.460;9.240;2022-08-14T07:14:16;25.00;99.90
22852;DHT22;11592;45.460;9.240;2022-08-14T07:16:43;25.00;99.90
22852;DHT22;11592;45.460;9.240;2022-08-14T07:19:10;25.00;99.90
22852;DHT22;11592;45.460;9.240;2022-08-14T07:21:37;25.10;99.90
22852;DHT22;11592;45.460;9.240;2022-08-14T07:24:05;25.00;99.90
22852;DHT22;11592;45.460;9.240;2022-08-14T07:26:35;25.10;99.90
22852;DHT22;11592;45.460;9.240;2022-08-14T07:29:06;25.00;99.90
22852;DHT22;11592;45.460;9.240;2022-08-14T07:31:33;25.10;99.90
22852;DHT22;11592;45.460;9.240;2022-08-14T07:34:01;25.20;99.90
22852;DHT22;11592;45.460;9.240;2022-08-14T07:36:29;25.30;99.90
22852;DHT22;11592;45.460;9.240;2022-08-14T07:39:00;25.30;99.80
22852;DHT22;11592;45.460;9.240;2022-08-14T07:41:29;25.40;99.90
22852;DHT22;11592;45.460;9.240;2022-08-14T07:44:00;25.40;99.80
22852;DHT22;11592;45.460;9.240;2022-08-14T07:46:46;25.40;99.80
22852;DHT22;11592;45.460;9.240;2022-08-14T07:49:15;25.50;99.80
22852;DHT22;11592;45.460;9.240;2022-08-14T07:51:44;25.60;99.90
22852;DHT22;11592;45.460;9.240;2022-08-14T07:54:15;25.60;99.90
22852;DHT22;11592;45.460;9.240;2022-08-14T07:56:49;25.70;99.50
22852;DHT22;11592;45.460;9.240;2022-08-14T07:59:22;25.70;99.80
22852;DHT22;11592;45.460;9.240;2022-08-14T08:02:09;25.70;99.90
22852;DHT22;11592;45.460;9.240;2022-08-14T08:04:47;25.80;99.90
22852;DHT22;11592;45.460;9.240;2022-08-14T08:07:15;25.40;99.40
22852;DHT22;11592;45.460;9.240;2022-08-14T08:09:46;25.40;99.40
22852;DHT22;11592;45.460;9.240;2022-08-14T08:12:19;25.40;99.20
22852;DHT22;11592;45.460;9.240;2022-08-14T08:14:54;25.50;99.20
22852;DHT22;11592;45.460;9.240;2022-08-14T08:17:34;25.60;98.90
22852;DHT22;11592;45.460;9.240;2022-08-14T08:20:13;25.80;98.70
22852;DHT22;11592;45.460;9.240;2022-08-14T08:22:42;26.00;98.90
22852;DHT22;11592;45.460;9.240;2022-08-14T08:25:18;26.10;98.80
22852;DHT22;11592;45.460;9.240;2022-08-14T08:27:55;26.20;98.70
22852;DHT22;11592;45.460;9.240;2022-08-14T08:30:23;26.40;99.00
22852;DHT22;11592;45.460;9.240;2022-08-14T08:32:54;26.50;99.00
22852;DHT22;11592;45.460;9.240;2022-08-14T08:35:23;26.50;98.70
22852;DHT22;11592;45.460;9.240;2022-08-14T08:38:16;26.40;98.50
22852;DHT22;11592;45.460;9.240;2022-08-14T08:41:03;26.30;98.40
22852;DHT22;11592;45.460;9.240;2022-08-14T08:43:35;26.40;98.40
22852;DHT22;11592;45.460;9.240;2022-08-14T08:46:13;26.70;98.20
22852;DHT22;11592;45.460;9.240;2022-08-14T08:51:39;27.00;98.10
22852;DHT22;11592;45.460;9.240;2022-08-14T08:54:11;27.20;97.60
22852;DHT22;11592;45.460;9.240;2022-08-14T08:56:47;27.40;98.00
22852;DHT22;11592;45.460;9.240;2022-08-14T08:59:23;27.50;97.40
22852;DHT22;11592;45.460;9.240;2022-08-14T09:02:02;27.70;97.10
22852;DHT22;11592;45.460;9.240;2022-08-14T09:04:41;27.80;96.60
22852;DHT22;11592;45.460;9.240;2022-08-14T09:07:11;28.00;96.50
22852;DHT22;11592;45.460;9.240;2022-08-14T09:09:39;28.00;96.70
22852;DHT22;11592;45.460;9.240;2022-08-14T09:12:28;28.10;95.80
22852;DHT22;11592;45.460;9.240;2022-08-14T09:15:00;28.20;95.40
22852;DHT22;11592;45.460;9.240;2022-08-14T09:17:28;28.30;95.40
22852;DHT22;11592;45.460;9.240;2022-08-14T09:19:55;28.30;95.10
22852;DHT22;11592;45.460;9.240;2022-08-14T09:22:28;28.20;94.60
22852;DHT22;11592;45.460;9.240;2022-08-14T09:25:04;28.20;94.90
22852;DHT22;11592;45.460;9.240;2022-08-14T09:27:33;28.20;94.70
22852;DHT22;11592;45.460;9.240;2022-08-14T09:30:01;28.20;94.50
22852;DHT22;11592;45.460;9.240;2022-08-14T09:41:22;28.50;94.50
22852;DHT22;11592;45.460;9.240;2022-08-14T09:44:32;28.50;93.80
22852;DHT22;11592;45.460;9.240;2022-08-14T09:47:08;28.70;93.80
22852;DHT22;11592;45.460;9.240;2022-08-14T09:49:40;28.70;93.70
22852;DHT22;11592;45.460;9.240;2022-08-14T09:52:19;28.80;93.60
22852;DHT22;11592;45.460;9.240;2022-08-14T09:55:00;28.60;93.80
22852;DHT22;11592;45.460;9.240;2022-08-14T09:57:29;28.60;94.10
22852;DHT22;11592;45.460;9.240;2022-08-14T09:59:57;28.60;94.00
22852;DHT22;11592;45.460;9.240;2022-08-14T10:02:28;28.70;93.60
22852;DHT22;11592;45.460;9.240;2022-08-14T10:05:06;28.80;93.10
22852;DHT22;11592;45.460;9.240;2022-08-14T10:07:47;29.00;92.70
22852;DHT22;11592;45.460;9.240;2022-08-14T10:10:33;29.00;92.70
22852;DHT22;11592;45.460;9.240;2022-08-14T10:13:02;29.50;93.90
22852;DHT22;11592;45.460;9.240;2022-08-14T10:15:32;29.80;92.70
22852;DHT22;11592;45.460;9.240;2022-08-14T10:18:09;30.20;91.90
22852;DHT22;11592;45.460;9.240;2022-08-14T10:20:56;30.10;91.10
22852;DHT22;11592;45.460;9.240;2022-08-14T10:23:26;30.20;91.80
22852;DHT22;11592;45.460;9.240;2022-08-14T10:26:06;30.40;91.30
22852;DHT22;11592;45.460;9.240;2022-08-14T10:28:52;30.50;91.10
22852;DHT22;11592;45.460;9.240;2022-08-14T10:31:42;30.70;90.10
22852;DHT22;11592;45.460;9.240;2022-08-14T10:34:17;30.80;89.80
22852;DHT22;11592;45.460;9.240;2022-08-14T10:36:45;30.60;87.60
22852;DHT22;11592;45.460;9.240;2022-08-14T10:39:27;30.30;86.10
22852;DHT22;11592;45.460;9.240;2022-08-14T10:42:09;30.30;87.20
22852;DHT22;11592;45.460;9.240;2022-08-14T10:44:45;30.30;87.30
22852;DHT22;11592;45.460;9.240;2022-08-14T10:47:18;30.00;86.60
22852;DHT22;11592;45.460;9.240;2022-08-14T10:50:06;30.10;87.20
22852;DHT22;11592;45.460;9.240;2022-08-14T10:52:37;30.10;87.20
22852;DHT22;11592;45.460;9.240;2022-08-14T10:55:15;30.20;87.80
22852;DHT22;11592;45.460;9.240;2022-08-14T10:57:51;30.20;85.80
22852;DHT22;11592;45.460;9.240;2022-08-14T11:00:25;30.30;85.80
22852;DHT22;11592;45.460;9.240;2022-08-14T11:03:06;30.60;85.70
22852;DHT22;11592;45.460;9.240;2022-08-14T11:05:39;31.00;87.00
22852;DHT22;11592;45.460;9.240;2022-08-14T11:08:08;31.40;86.70
22852;DHT22;11592;45.460;9.240;2022-08-14T11:10:58;31.70;87.30
22852;DHT22;11592;45.460;9.240;2022-08-14T11:13:29;31.80;88.10
22852;DHT22;11592;45.460;9.240;2022-08-14T11:15:58;32.00;87.50
22852;DHT22;11592;45.460;9.240;2022-08-14T11:18:29;31.80;81.20
22852;DHT22;11592;45.460;9.240;2022-08-14T11:21:06;31.60;80.80
22852;DHT22;11592;45.460;9.240;2022-08-14T11:23:36;33.00;80.90
22852;DHT22;11592;45.460;9.240;2022-08-14T11:26:10;31.80;80.50
22852;DHT22;11592;45.460;9.240;2022-08-14T11:28:41;31.90;79.80
22852;DHT22;11592;45.460;9.240;2022-08-14T11:31:17;31.80;83.10
22852;DHT22;11592;45.460;9.240;2022-08-14T11:33:51;31.80;81.90
22852;DHT22;11592;45.460;9.240;2022-08-14T11:36:25;32.00;81.00
22852;DHT22;11592;45.460;9.240;2022-08-14T11:39:23;32.00;81.00
22852;DHT22;11592;45.460;9.240;2022-08-14T11:42:03;32.10;82.40
22852;DHT22;11592;45.460;9.240;2022-08-14T11:44:52;32.20;80.90
22852;DHT22;11592;45.460;9.240;2022-08-14T11:47:25;32.20;80.50
22852;DHT22;11592;45.460;9.240;2022-08-14T11:50:11;32.30;79.50
22852;DHT22;11592;45.460;9.240;2022-08-14T11:52:38;32.40;78.60
22852;DHT22;11592;45.460;9.240;2022-08-14T11:55:11;32.90;80.70
22852;DHT22;11592;45.460;9.240;2022-08-14T11:57:41;33.40;76.20
22852;DHT22;11592;45.460;9.240;2022-08-14T12:00:25;33.20;72.20
22852;DHT22;11592;45.460;9.240;2022-08-14T12:03:00;33.30;78.30
22852;DHT22;11592;45.460;9.240;2022-08-14T12:05:35;33.50;78.70
22852;DHT22;11592;45.460;9.240;2022-08-14T12:08:05;33.80;74.20
22852;DHT22;11592;45.460;9.240;2022-08-14T12:10:41;34.10;73.90
22852;DHT22;11592;45.460;9.240;2022-08-14T12:13:17;34.50;80.50
22852;DHT22;11592;45.460;9.240;2022-08-14T12:15:55;34.70;67.10
22852;DHT22;11592;45.460;9.240;2022-08-14T12:18:34;34.50;67.60
22852;DHT22;11592;45.460;9.240;2022-08-14T12:21:21;34.20;67.30
22852;DHT22;11592;45.460;9.240;2022-08-14T12:24:08;33.90;68.50
22852;DHT22;11592;45.460;9.240;2022-08-14T12:26:55;34.30;67.50
22852;DHT22;11592;45.460;9.240;2022-08-14T12:29:24;34.80;67.80
22852;DHT22;11592;45.460;9.240;2022-08-14T12:31:59;34.60;63.70
22852;DHT22;11592;45.460;9.240;2022-08-14T12:34:29;34.20;64.20
22852;DHT22;11592;45.460;9.240;2022-08-14T12:37:03;33.70;63.50
22852;DHT22;11592;45.460;9.240;2022-08-14T12:39:32;33.40;65.50
22852;DHT22;11592;45.460;9.240;2022-08-14T12:42:06;33.20;65.20
22852;DHT22;11592;45.460;9.240;2022-08-14T12:44:36;33.30;66.60
22852;DHT22;11592;45.460;9.240;2022-08-14T12:47:10;33.20;66.00
22852;DHT22;11592;45.460;9.240;2022-08-14T12:49:53;33.30;67.00
22852;DHT22;11592;45.460;9.240;2022-08-14T12:52:42;33.30;67.50
22852;DHT22;11592;45.460;9.240;2022-08-14T12:55:32;33.30;66.40
22852;DHT22;11592;45.460;9.240;2022-08-14T12:58:20;33.50;66.40
22852;DHT22;11592;45.460;9.240;2022-08-14T13:01:02;33.70;66.20
22852;DHT22;11592;45.460;9.240;2022-08-14T13:03:46;34.10;65.40
22852;DHT22;11592;45.460;9.240;2022-08-14T13:06:18;34.80;63.70
22852;DHT22;11592;45.460;9.240;2022-08-14T13:08:45;35.40;62.50
22852;DHT22;11592;45.460;9.240;2022-08-14T13:11:18;35.90;62.40
22852;DHT22;11592;45.460;9.240;2022-08-14T13:13:51;36.00;60.10
22852;DHT22;11592;45.460;9.240;2022-08-14T13:16:21;36.50;58.40
22852;DHT22;11592;45.460;9.240;2022-08-14T13:19:04;37.30;57.40
22852;DHT22;11592;45.460;9.240;2022-08-14T13:21:38;37.80;56.30
22852;DHT22;11592;45.460;9.240;2022-08-14T13:24:25;36.90;54.70
22852;DHT22;11592;45.460;9.240;2022-08-14T13:26:55;38.30;54.70
22852;DHT22;11592;45.460;9.240;2022-08-14T13:29:26;38.10;55.90
22852;DHT22;11592;45.460;9.240;2022-08-14T13:31:58;38.50;56.30
22852;DHT22;11592;45.460;9.240;2022-08-14T13:34:27;39.30;55.40
22852;DHT22;11592;45.460;9.240;2022-08-14T13:36:55;40.40;55.50
22852;DHT22;11592;45.460;9.240;2022-08-14T13:39:30;41.30;54.20
22852;DHT22;11592;45.460;9.240;2022-08-14T13:42:03;42.30;49.60
22852;DHT22;11592;45.460;9.240;2022-08-14T13:44:42;42.90;51.10
22852;DHT22;11592;45.460;9.240;2022-08-14T13:47:11;43.40;48.20
22852;DHT22;11592;45.460;9.240;2022-08-14T13:49:41;44.20;46.00
22852;DHT22;11592;45.460;9.240;2022-08-14T13:52:24;43.60;48.70
22852;DHT22;11592;45.460;9.240;2022-08-14T13:55:12;43.50;48.20
22852;DHT22;11592;45.460;9.240;2022-08-14T13:57:42;43.50;46.00
22852;DHT22;11592;45.460;9.240;2022-08-14T14:00:24;42.90;45.90
22852;DHT22;11592;45.460;9.240;2022-08-14T14:02:59;42.70;46.50
22852;DHT22;11592;45.460;9.240;2022-08-14T14:05:26;40.60;47.40
22852;DHT22;11592;45.460;9.240;2022-08-14T14:08:14;38.50;49.70
22852;DHT22;11592;45.460;9.240;2022-08-14T14:11:02;37.70;51.70
22852;DHT22;11592;45.460;9.240;2022-08-14T14:13:30;38.20;51.30
22852;DHT22;11592;45.460;9.240;2022-08-14T14:15:59;39.20;51.20
22852;DHT22;11592;45.460;9.240;2022-08-14T14:18:30;39.00;50.90
22852;DHT22;11592;45.460;9.240;2022-08-14T14:21:01;38.60;51.50
22852;DHT22;11592;45.460;9.240;2022-08-14T14:23:28;38.40;51.70
22852;DHT22;11592;45.460;9.240;2022-08-14T14:25:58;37.90;51.50
22852;DHT22;11592;45.460;9.240;2022-08-14T14:28:30;37.60;51.90
22852;DHT22;11592;45.460;9.240;2022-08-14T14:31:02;38.60;50.90
22852;DHT22;11592;45.460;9.240;2022-08-14T14:33:36;39.30;50.10
22852;DHT22;11592;45.460;9.240;2022-08-14T14:36:18;39.10;51.10
22852;DHT22;11592;45.460;9.240;2022-08-14T14:41:23;39.50;49.80
22852;DHT22;11592;45.460;9.240;2022-08-14T14:43:51;38.40;50.70
22852;DHT22;11592;45.460;9.240;2022-08-14T14:46:21;37.50;51.60
22852;DHT22;11592;45.460;9.240;2022-08-14T14:49:06;36.60;52.60
22852;DHT22;11592;45.460;9.240;2022-08-14T14:51:40;35.80;54.10
22852;DHT22;11592;45.460;9.240;2022-08-14T14:54:09;35.10;55.30
22852;DHT22;11592;45.460;9.240;2022-08-14T14:56:39;34.60;56.40
22852;DHT22;11592;45.460;9.240;2022-08-14T14:59:17;34.00;57.40
22852;DHT22;11592;45.460;9.240;2022-08-14T15:01:49;33.80;58.40
22852;DHT22;11592;45.460;9.240;2022-08-14T15:04:16;33.20;59.10
22852;DHT22;11592;45.460;9.240;2022-08-14T15:06:47;32.60;60.00
22852;DHT22;11592;45.460;9.240;2022-08-14T15:09:14;32.30;61.60
22852;DHT22;11592;45.460;9.240;2022-08-14T15:11:44;32.20;61.80
22852;DHT22;11592;45.460;9.240;2022-08-14T15:14:13;31.70;63.20
22852;DHT22;11592;45.460;9.240;2022-08-14T15:17:00;31.40;64.50
22852;DHT22;11592;45.460;9.240;2022-08-14T15:19:27;31.20;65.60
22852;DHT22;11592;45.460;9.240;2022-08-14T15:21:54;31.30;65.70
22852;DHT22;11592;45.460;9.240;2022-08-14T15:24:21;31.50;65.50
22852;DHT22;11592;45.460;9.240;2022-08-14T15:26:53;31.60;65.70
22852;DHT22;11592;45.460;9.240;2022-08-14T15:29:24;31.50;66.10
22852;DHT22;11592;45.460;9.240;2022-08-14T15:31:51;31.50;66.70
22852;DHT22;11592;45.460;9.240;2022-08-14T15:34:20;31.50;67.70
22852;DHT22;11592;45.460;9.240;2022-08-14T15:37:07;31.30;67.90
22852;DHT22;11592;45.460;9.240;2022-08-14T15:39:39;30.80;69.10
22852;DHT22;11592;45.460;9.240;2022-08-14T15:42:08;31.00;69.50
22852;DHT22;11592;45.460;9.240;2022-08-14T15:44:46;31.00;69.60
22852;DHT22;11592;45.460;9.240;2022-08-14T15:47:28;30.90;69.20
22852;DHT22;11592;45.460;9.240;2022-08-14T15:49:58;31.20;69.70
22852;DHT22;11592;45.460;9.240;2022-08-14T15:52:27;31.30;69.70
22852;DHT22;11592;45.460;9.240;2022-08-14T15:55:08;31.30;69.20
22852;DHT22;11592;45.460;9.240;2022-08-14T15:57:35;31.20;69.50
22852;DHT22;11592;45.460;9.240;2022-08-14T16:00:08;31.70;70.00
22852;DHT22;11592;45.460;9.240;2022-08-14T16:03:10;31.50;70.40
22852;DHT22;11592;45.460;9.240;2022-08-14T16:05:43;31.30;70.50
22852;DHT22;11592;45.460;9.240;2022-08-14T16:08:13;31.50;71.00
22852;DHT22;11592;45.460;9.240;2022-08-14T16:11:00;31.40;70.70
22852;DHT22;11592;45.460;9.240;2022-08-14T16:13:30;31.30;71.40
22852;DHT22;11592;45.460;9.240;2022-08-14T16:16:17;31.40;71.90
22852;DHT22;11592;45.460;9.240;2022-08-14T16:19:05;31.30;71.50
22852;DHT22;11592;45.460;9.240;2022-08-14T16:21:38;31.30;71.60
22852;DHT22;11592;45.460;9.240;2022-08-14T16:24:06;31.30;72.00
22852;DHT22;11592;45.460;9.240;2022-08-14T16:26:55;31.10;72.70
22852;DHT22;11592;45.460;9.240;2022-08-14T16:29:31;30.80;72.50
22852;DHT22;11592;45.460;9.240;2022-08-14T16:32:00;30.50;73.60